Time,TemperatureF,DewpointF,PressureIn,WindDirection,WindDirectionDegrees,WindSpeedMPH,WindSpeedGustMPH,Humidity,HourlyPrecipIn,Conditions,Clouds,dailyrainin,SoftwareType,DateUTC
2013-08-18 00:01:00,61.2,56.7,29.94,North,0,0.0,0.0,85,0.00,,,0.00,WUHU216HW,2013-08-18 04:01:00,
2013-08-18 00:02:00,61.0,56.5,29.94,North,0,0.0,0.0,85,0.00,,,0.00,WUHU216HW,2013-08-18 04:02:00,
2013-08-18 00:07:00,60.8,56.3,29.94,North,0,0.0,0.0,85,0.00,,,0.00,WUHU216HW,2013-08-18 04:07:00,
2013-08-18 00:12:00,60.8,56.3,29.94,North,0,0.0,0.0,85,0.00,,,0.00,WUHU216HW,2013-08-18 04:12:00,
2013-08-18 00:17:00,60.8,56.3,29.94,North,0,0.0,0.0,85,0.00,,,0.00,WUHU216HW,2013-08-18 04:17:00,
2013-08-18 00:23:00,60.7,56.2,29.94,North,0,0.0,0.0,85,0.00,,,0.00,WUHU216HW,2013-08-18 04:23:00,
2013-08-18 00:28:00,60.7,56.2,29.94,North,0,0.0,0.0,85,0.00,,,0.00,WUHU216HW,2013-08-18 04:28:00,
2013-08-18 00:33:00,60.5,56.4,29.94,North,0,0.0,0.0,86,0.00,,,0.00,WUHU216HW,2013-08-18 04:33:00,
2013-08-18 00:38:00,60.5,56.4,29.94,North,0,0.0,0.0,86,0.00,,,0.00,WUHU216HW,2013-08-18 04:38:00,
2013-08-18 00:43:00,60.3,56.2,29.94,North,0,0.0,0.0,86,0.00,,,0.00,WUHU216HW,2013-08-18 04:43:00,
2013-08-18 00:48:00,60.1,56.0,29.94,North,0,0.0,0.0,86,0.00,,,0.00,WUHU216HW,2013-08-18 04:48:00,
2013-08-18 00:53:00,60.1,56.0,29.94,North,0,0.0,0.0,86,0.00,,,0.00,WUHU216HW,2013-08-18 04:53:00,
2013-08-18 00:58:00,59.9,55.8,29.94,North,0,0.0,0.0,86,0.00,,,0.00,WUHU216HW,2013-08-18 04:58:00,
2013-08-18 01:03:00,59.9,55.8,29.94,North,0,0.0,0.0,86,0.00,,,0.00,WUHU216HW,2013-08-18 05:03:00,
2013-08-18 01:08:00,59.8,55.6,29.94,North,0,0.0,0.0,86,0.00,,,0.00,WUHU216HW,2013-08-18 05:08:00,
2013-08-18 01:13:00,59.8,55.9,29.94,North,0,0.0,0.0,87,0.00,,,0.00,WUHU216HW,2013-08-18 05:13:00,
2013-08-18 01:18:00,59.6,55.7,29.94,North,0,0.0,0.0,87,0.00,,,0.00,WUHU216HW,2013-08-18 05:18:00,
2013-08-18 01:23:00,59.4,55.5,29.93,North,0,0.0,0.0,87,0.00,,,0.00,WUHU216HW,2013-08-18 05:23:00,
2013-08-18 01:28:00,59.4,55.5,29.93,North,0,0.0,0.0,87,0.00,,,0.00,WUHU216HW,2013-08-18 05:28:00,
2013-08-18 01:34:00,59.2,55.4,29.93,North,0,0.0,0.0,87,0.00,,,0.00,WUHU216HW,2013-08-18 05:34:00,
2013-08-18 01:39:00,59.2,55.4,29.93,North,0,0.0,0.0,87,0.00,,,0.00,WUHU216HW,2013-08-18 05:39:00,
2013-08-18 01:44:00,59.0,55.2,29.93,North,0,0.0,0.0,87,0.00,,,0.00,WUHU216HW,2013-08-18 05:44:00,
2013-08-18 01:49:00,59.0,55.2,29.93,North,0,0.0,0.0,87,0.00,,,0.00,WUHU216HW,2013-08-18 05:49:00,
2013-08-18 01:54:00,59.0,55.2,29.93,North,0,0.0,0.0,87,0.00,,,0.00,WUHU216HW,2013-08-18 05:54:00,
2013-08-18 01:59:00,58.9,55.0,29.93,North,0,0.0,0.0,87,0.00,,,0.00,WUHU216HW,2013-08-18 05:59:00,
2013-08-18 02:04:00,58.9,55.0,29.93,North,0,0.0,0.0,87,0.00,,,0.00,WUHU216HW,2013-08-18 06:04:00,
2013-08-18 02:09:00,58.7,54.8,29.93,North,0,0.0,0.0,87,0.00,,,0.00,WUHU216HW,2013-08-18 06:09:00,
2013-08-18 02:14:00,58.7,54.8,29.92,North,0,0.0,0.0,87,0.00,,,0.00,WUHU216HW,2013-08-18 06:14:00,
2013-08-18 02:19:00,58.7,54.8,29.92,North,0,0.0,0.0,87,0.00,,,0.00,WUHU216HW,2013-08-18 06:19:00,
2013-08-18 02:24:00,58.7,55.2,29.92,North,0,0.0,0.0,88,0.00,,,0.00,WUHU216HW,2013-08-18 06:24:00,
2013-08-18 02:29:00,58.3,54.8,29.92,North,0,0.0,0.0,88,0.00,,,0.00,WUHU216HW,2013-08-18 06:29:00,
2013-08-18 02:34:00,58.5,55.0,29.92,North,0,0.0,0.0,88,0.00,,,0.00,WUHU216HW,2013-08-18 06:34:00,
2013-08-18 02:39:00,58.3,54.8,29.92,North,0,0.0,0.0,88,0.00,,,0.00,WUHU216HW,2013-08-18 06:39:00,
2013-08-18 02:44:00,58.3,54.8,29.92,North,0,0.0,0.0,88,0.00,,,0.00,WUHU216HW,2013-08-18 06:44:00,
2013-08-18 02:50:00,58.3,54.8,29.92,North,0,0.0,0.0,88,0.00,,,0.00,WUHU216HW,2013-08-18 06:50:00,
2013-08-18 02:55:00,58.3,54.8,29.92,North,0,0.0,0.0,88,0.00,,,0.00,WUHU216HW,2013-08-18 06:55:00,
2013-08-18 03:00:00,58.3,55.1,29.93,North,0,0.0,0.0,89,0.00,,,0.00,WUHU216HW,2013-08-18 07:00:00,
2013-08-18 03:05:00,58.1,54.6,29.92,North,0,0.0,0.0,88,0.00,,,0.00,WUHU216HW,2013-08-18 07:05:00,
2013-08-18 03:10:00,58.1,54.6,29.92,North,0,0.0,0.0,88,0.00,,,0.00,WUHU216HW,2013-08-18 07:10:00,
2013-08-18 03:15:00,58.1,54.6,29.92,North,0,0.0,0.0,88,0.00,,,0.00,WUHU216HW,2013-08-18 07:15:00,
2013-08-18 03:20:00,58.1,54.6,29.92,North,0,0.0,0.0,88,0.00,,,0.00,WUHU216HW,2013-08-18 07:20:00,
2013-08-18 03:25:00,58.0,54.5,29.92,North,0,0.0,0.0,88,0.00,,,0.00,WUHU216HW,2013-08-18 07:25:00,
2013-08-18 03:30:00,58.0,54.5,29.92,North,0,0.0,0.0,88,0.00,,,0.00,WUHU216HW,2013-08-18 07:30:00,
2013-08-18 03:35:00,58.0,54.5,29.92,North,0,0.0,0.0,88,0.00,,,0.00,WUHU216HW,2013-08-18 07:35:00,
2013-08-18 03:40:00,58.0,54.7,29.92,North,0,0.0,0.0,89,0.00,,,0.00,WUHU216HW,2013-08-18 07:40:00,
2013-08-18 03:45:00,57.8,54.5,29.92,North,0,0.0,0.0,89,0.00,,,0.00,WUHU216HW,2013-08-18 07:45:00,
2013-08-18 03:50:00,57.8,54.5,29.93,North,0,0.0,0.0,89,0.00,,,0.00,WUHU216HW,2013-08-18 07:50:00,
2013-08-18 03:55:00,57.8,54.5,29.93,North,0,0.0,0.0,89,0.00,,,0.00,WUHU216HW,2013-08-18 07:55:00,
2013-08-18 04:00:00,57.8,54.5,29.92,North,0,0.0,0.0,89,0.00,,,0.00,WUHU216HW,2013-08-18 08:00:00,
2013-08-18 04:06:00,57.6,54.4,29.92,North,0,0.0,0.0,89,0.00,,,0.00,WUHU216HW,2013-08-18 08:06:00,
2013-08-18 04:11:00,57.6,54.4,29.92,North,0,0.0,0.0,89,0.00,,,0.00,WUHU216HW,2013-08-18 08:11:00,
2013-08-18 04:16:00,57.4,54.2,29.92,North,0,0.0,0.0,89,0.00,,,0.00,WUHU216HW,2013-08-18 08:16:00,
2013-08-18 04:21:00,57.2,54.0,29.92,North,0,0.0,0.0,89,0.00,,,0.00,WUHU216HW,2013-08-18 08:21:00,
2013-08-18 04:26:00,57.2,54.0,29.92,North,0,0.0,0.0,89,0.00,,,0.00,WUHU216HW,2013-08-18 08:26:00,
2013-08-18 04:31:00,57.2,54.0,29.92,North,0,0.0,0.0,89,0.00,,,0.00,WUHU216HW,2013-08-18 08:31:00,
2013-08-18 04:36:00,57.1,53.8,29.92,North,0,0.0,0.0,89,0.00,,,0.00,WUHU216HW,2013-08-18 08:36:00,
2013-08-18 04:41:00,57.1,53.8,29.92,North,0,0.0,0.0,89,0.00,,,0.00,WUHU216HW,2013-08-18 08:41:00,
2013-08-18 04:49:00,56.9,53.6,29.92,North,0,0.0,0.0,89,0.00,,,0.00,WUHU216HW,2013-08-18 08:49:00,
2013-08-18 04:54:00,56.9,53.6,29.92,North,0,0.0,0.0,89,0.00,,,0.00,WUHU216HW,2013-08-18 08:54:00,
2013-08-18 05:00:00,56.9,53.6,29.92,North,0,0.0,0.0,89,0.00,,,0.00,WUHU216HW,2013-08-18 09:00:00,
2013-08-18 05:05:00,56.9,53.6,29.92,North,0,0.0,0.0,89,0.00,,,0.00,WUHU216HW,2013-08-18 09:05:00,
2013-08-18 05:10:00,56.7,53.5,29.92,North,0,0.0,0.0,89,0.00,,,0.00,WUHU216HW,2013-08-18 09:10:00,
2013-08-18 05:15:00,56.7,53.5,29.93,North,0,0.0,0.0,89,0.00,,,0.00,WUHU216HW,2013-08-18 09:15:00,
2013-08-18 05:20:00,56.7,53.5,29.93,North,0,0.0,0.0,89,0.00,,,0.00,WUHU216HW,2013-08-18 09:20:00,
2013-08-18 05:25:00,56.7,53.5,29.92,North,0,0.0,0.0,89,0.00,,,0.00,WUHU216HW,2013-08-18 09:25:00,
2013-08-18 05:30:00,56.5,53.3,29.93,North,0,0.0,0.0,89,0.00,,,0.00,WUHU216HW,2013-08-18 09:30:00,
2013-08-18 05:35:00,56.7,53.5,29.93,North,0,0.0,0.0,89,0.00,,,0.00,WUHU216HW,2013-08-18 09:35:00,
2013-08-18 05:40:00,56.5,53.6,29.93,North,0,0.0,0.0,90,0.00,,,0.00,WUHU216HW,2013-08-18 09:40:00,
2013-08-18 05:45:00,56.5,53.6,29.93,North,0,0.0,0.0,90,0.00,,,0.00,WUHU216HW,2013-08-18 09:45:00,
2013-08-18 05:50:00,56.7,53.8,29.93,North,0,0.0,0.0,90,0.00,,,0.00,WUHU216HW,2013-08-18 09:50:00,
2013-08-18 05:55:00,56.7,53.8,29.93,North,0,0.0,0.0,90,0.00,,,0.00,WUHU216HW,2013-08-18 09:55:00,
2013-08-18 06:00:00,56.5,53.6,29.93,North,0,0.0,0.0,90,0.00,,,0.00,WUHU216HW,2013-08-18 10:00:00,
2013-08-18 06:05:00,56.5,53.6,29.93,North,0,0.0,0.0,90,0.00,,,0.00,WUHU216HW,2013-08-18 10:05:00,
2013-08-18 06:10:00,56.5,53.6,29.93,North,0,0.0,0.0,90,0.00,,,0.00,WUHU216HW,2013-08-18 10:10:00,
2013-08-18 06:16:00,56.5,53.9,29.94,North,0,0.0,0.0,91,0.00,,,0.00,WUHU216HW,2013-08-18 10:16:00,
2013-08-18 06:21:00,56.5,53.9,29.94,North,0,0.0,0.0,91,0.00,,,0.00,WUHU216HW,2013-08-18 10:21:00,
2013-08-18 06:26:00,56.5,53.6,29.94,North,0,0.0,0.0,90,0.00,,,0.00,WUHU216HW,2013-08-18 10:26:00,
2013-08-18 06:31:00,56.5,53.6,29.94,North,0,0.0,0.0,90,0.00,,,0.00,WUHU216HW,2013-08-18 10:31:00,
2013-08-18 06:36:00,56.7,53.8,29.94,North,0,0.0,0.0,90,0.00,,,0.00,WUHU216HW,2013-08-18 10:36:00,
2013-08-18 06:41:00,56.7,53.8,29.94,North,0,0.0,0.0,90,0.00,,,0.00,WUHU216HW,2013-08-18 10:41:00,
2013-08-18 06:46:00,56.9,54.0,29.94,North,0,0.0,0.0,90,0.00,,,0.00,WUHU216HW,2013-08-18 10:46:00,
2013-08-18 06:51:00,56.9,54.0,29.93,North,0,0.0,0.0,90,0.00,,,0.00,WUHU216HW,2013-08-18 10:51:00,
2013-08-18 06:56:00,56.9,54.0,29.93,North,0,0.0,0.0,90,0.00,,,0.00,WUHU216HW,2013-08-18 10:56:00,
2013-08-18 07:01:00,57.1,54.2,29.94,North,0,0.0,0.0,90,0.00,,,0.00,WUHU216HW,2013-08-18 11:01:00,
2013-08-18 07:06:00,57.2,54.4,29.94,North,0,0.0,0.0,90,0.00,,,0.00,WUHU216HW,2013-08-18 11:06:00,
2013-08-18 07:11:00,57.2,54.4,29.94,North,0,0.0,0.0,90,0.00,,,0.00,WUHU216HW,2013-08-18 11:11:00,
2013-08-18 07:16:00,57.4,54.5,29.94,North,0,0.0,0.0,90,0.00,,,0.00,WUHU216HW,2013-08-18 11:16:00,
2013-08-18 07:21:00,57.6,54.7,29.94,North,0,0.0,0.0,90,0.00,,,0.00,WUHU216HW,2013-08-18 11:21:00,
2013-08-18 07:26:00,57.6,54.7,29.94,North,0,0.0,0.0,90,0.00,,,0.00,WUHU216HW,2013-08-18 11:26:00,
2013-08-18 07:32:00,57.8,54.9,29.94,North,0,0.0,0.0,90,0.00,,,0.00,WUHU216HW,2013-08-18 11:32:00,
2013-08-18 07:37:00,58.0,55.1,29.94,North,0,0.0,0.0,90,0.00,,,0.00,WUHU216HW,2013-08-18 11:37:00,
2013-08-18 07:42:00,58.0,55.1,29.94,North,0,0.0,0.0,90,0.00,,,0.00,WUHU216HW,2013-08-18 11:42:00,
2013-08-18 07:47:00,58.3,55.7,29.94,North,0,0.0,0.0,91,0.00,,,0.00,WUHU216HW,2013-08-18 11:47:00,
2013-08-18 07:52:00,58.7,56.1,29.94,North,0,0.0,0.0,91,0.00,,,0.00,WUHU216HW,2013-08-18 11:52:00,
2013-08-18 07:57:00,58.7,55.8,29.94,North,0,0.0,0.0,90,0.00,,,0.00,WUHU216HW,2013-08-18 11:57:00,
2013-08-18 08:02:00,59.0,56.2,29.94,North,0,0.0,0.0,90,0.00,,,0.00,WUHU216HW,2013-08-18 12:02:00,
2013-08-18 08:07:00,59.2,56.3,29.93,North,0,0.0,0.0,90,0.00,,,0.00,WUHU216HW,2013-08-18 12:07:00,
2013-08-18 08:12:00,59.4,56.5,29.94,North,0,0.0,0.0,90,0.00,,,0.00,WUHU216HW,2013-08-18 12:12:00,
2013-08-18 08:17:00,59.8,56.9,29.94,North,0,0.0,0.0,90,0.00,,,0.00,WUHU216HW,2013-08-18 12:17:00,
2013-08-18 08:22:00,59.9,56.7,29.94,North,0,0.0,0.0,89,0.00,,,0.00,WUHU216HW,2013-08-18 12:22:00,
2013-08-18 08:27:00,60.1,56.9,29.94,North,0,0.0,0.0,89,0.00,,,0.00,WUHU216HW,2013-08-18 12:27:00,
2013-08-18 08:32:00,60.3,57.1,29.93,North,0,0.0,0.0,89,0.00,,,0.00,WUHU216HW,2013-08-18 12:32:00,
2013-08-18 08:37:00,60.7,57.4,29.93,North,0,0.0,0.0,89,0.00,,,0.00,WUHU216HW,2013-08-18 12:37:00,
2013-08-18 08:43:00,61.0,57.5,29.93,North,0,0.0,0.0,88,0.00,,,0.00,WUHU216HW,2013-08-18 12:43:00,
2013-08-18 08:48:00,61.2,57.7,29.92,North,0,0.0,0.0,88,0.00,,,0.00,WUHU216HW,2013-08-18 12:48:00,
2013-08-18 08:53:00,61.6,58.1,29.92,North,0,0.0,0.0,88,0.00,,,0.00,WUHU216HW,2013-08-18 12:53:00,
2013-08-18 08:58:00,61.9,58.1,29.92,North,0,0.0,0.0,87,0.00,,,0.00,WUHU216HW,2013-08-18 12:58:00,
2013-08-18 09:03:00,62.3,58.4,29.92,North,0,0.0,0.0,87,0.00,,,0.00,WUHU216HW,2013-08-18 13:03:00,
2013-08-18 09:08:00,62.6,58.4,29.92,North,0,0.0,0.0,86,0.00,,,0.00,WUHU216HW,2013-08-18 13:08:00,
2013-08-18 09:13:00,63.0,58.4,29.92,North,0,0.0,0.0,85,0.00,,,0.00,WUHU216HW,2013-08-18 13:13:00,
2013-08-18 09:18:00,63.2,58.6,29.92,North,0,0.0,0.0,85,0.00,,,0.00,WUHU216HW,2013-08-18 13:18:00,
2013-08-18 09:23:00,63.5,59.0,29.93,North,0,0.0,0.0,85,0.00,,,0.00,WUHU216HW,2013-08-18 13:23:00,
2013-08-18 09:28:00,63.7,58.8,29.92,North,0,0.0,0.0,84,0.00,,,0.00,WUHU216HW,2013-08-18 13:28:00,
2013-08-18 09:33:00,64.1,59.1,29.93,North,0,0.0,0.0,84,0.00,,,0.00,WUHU216HW,2013-08-18 13:33:00,
2013-08-18 09:38:00,64.6,59.3,29.92,North,0,0.0,0.0,83,0.00,,,0.00,WUHU216HW,2013-08-18 13:38:00,
2013-08-18 09:43:00,65.0,60.0,29.92,North,0,0.0,0.0,84,0.00,,,0.00,WUHU216HW,2013-08-18 13:43:00,
2013-08-18 09:48:00,65.5,60.2,29.92,North,0,0.0,0.0,83,0.00,,,0.00,WUHU216HW,2013-08-18 13:48:00,
2013-08-18 09:54:00,65.9,60.0,29.92,North,0,0.0,0.0,81,0.00,,,0.00,WUHU216HW,2013-08-18 13:54:00,
2013-08-18 09:59:00,66.2,60.3,29.92,North,0,0.0,0.0,81,0.00,,,0.00,WUHU216HW,2013-08-18 13:59:00,
2013-08-18 10:04:00,67.0,61.0,29.92,North,0,0.0,0.0,81,0.00,,,0.00,WUHU216HW,2013-08-18 14:04:00,
2013-08-18 10:09:00,67.7,61.4,29.92,North,0,0.0,0.0,80,0.00,,,0.00,WUHU216HW,2013-08-18 14:09:00,
2013-08-18 10:14:00,68.4,62.1,29.92,North,0,0.0,0.0,80,0.00,,,0.00,WUHU216HW,2013-08-18 14:14:00,
2013-08-18 10:19:00,69.1,62.4,29.92,North,0,0.0,0.0,79,0.00,,,0.00,WUHU216HW,2013-08-18 14:19:00,
2013-08-18 10:24:00,69.7,62.8,29.92,North,0,0.0,0.0,79,0.00,,,0.00,WUHU216HW,2013-08-18 14:24:00,
2013-08-18 10:29:00,70.4,63.2,29.92,North,0,0.0,0.0,78,0.00,,,0.00,WUHU216HW,2013-08-18 14:29:00,
2013-08-18 10:34:00,71.1,63.1,29.92,North,0,0.0,0.0,76,0.00,,,0.00,WUHU216HW,2013-08-18 14:34:00,
2013-08-18 10:39:00,71.6,63.6,29.92,North,0,0.0,0.0,76,0.00,,,0.00,WUHU216HW,2013-08-18 14:39:00,
2013-08-18 10:44:00,72.4,64.7,29.92,North,0,0.0,0.0,77,0.00,,,0.00,WUHU216HW,2013-08-18 14:44:00,
2013-08-18 10:49:00,73.1,65.4,29.92,North,0,0.0,0.0,77,0.00,,,0.00,WUHU216HW,2013-08-18 14:49:00,
2013-08-18 10:54:00,73.6,65.3,29.92,North,0,0.0,0.0,75,0.00,,,0.00,WUHU216HW,2013-08-18 14:54:00,
2013-08-18 10:59:00,74.2,65.8,29.92,North,0,0.0,0.0,75,0.00,,,0.00,WUHU216HW,2013-08-18 14:59:00,
2013-08-18 11:05:00,74.5,66.1,29.92,North,0,0.0,0.0,75,0.00,,,0.00,WUHU216HW,2013-08-18 15:05:00,
2013-08-18 11:10:00,75.1,66.3,29.92,North,0,0.0,0.0,74,0.00,,,0.00,WUHU216HW,2013-08-18 15:10:00,
2013-08-18 11:15:00,75.4,66.2,29.92,North,0,0.0,0.0,73,0.00,,,0.00,WUHU216HW,2013-08-18 15:15:00,
2013-08-18 11:20:00,76.1,66.9,29.91,North,0,0.0,0.0,73,0.00,,,0.00,WUHU216HW,2013-08-18 15:20:00,
2013-08-18 11:25:00,76.5,66.4,29.91,North,0,0.0,0.0,71,0.00,,,0.00,WUHU216HW,2013-08-18 15:25:00,
2013-08-18 11:30:00,76.7,66.6,29.91,North,0,0.0,0.0,71,0.00,,,0.00,WUHU216HW,2013-08-18 15:30:00,
2013-08-18 11:35:00,76.7,66.6,29.91,North,0,0.0,0.0,71,0.00,,,0.00,WUHU216HW,2013-08-18 15:35:00,
2013-08-18 11:40:00,76.5,66.9,29.91,North,0,0.0,0.0,72,0.00,,,0.00,WUHU216HW,2013-08-18 15:40:00,
2013-08-18 11:45:00,76.7,67.4,29.91,North,0,0.0,0.0,73,0.00,,,0.00,WUHU216HW,2013-08-18 15:45:00,
2013-08-18 11:50:00,76.9,67.6,29.91,North,0,0.0,0.0,73,0.00,,,0.00,WUHU216HW,2013-08-18 15:50:00,
2013-08-18 11:55:00,77.0,67.8,29.90,North,0,0.0,0.0,73,0.00,,,0.00,WUHU216HW,2013-08-18 15:55:00,
2013-08-18 12:00:00,77.4,67.7,29.90,North,0,0.0,0.0,72,0.00,,,0.00,WUHU216HW,2013-08-18 16:00:00,
2013-08-18 12:05:00,77.4,67.3,29.90,North,0,0.0,0.0,71,0.00,,,0.00,WUHU216HW,2013-08-18 16:05:00,
2013-08-18 12:11:00,77.4,67.3,29.90,North,0,0.0,0.0,71,0.00,,,0.00,WUHU216HW,2013-08-18 16:11:00,
2013-08-18 12:16:00,77.4,67.3,29.90,North,0,0.0,0.0,71,0.00,,,0.00,WUHU216HW,2013-08-18 16:16:00,
2013-08-18 12:21:00,77.4,67.3,29.90,North,0,0.0,0.0,71,0.00,,,0.00,WUHU216HW,2013-08-18 16:21:00,
2013-08-18 12:26:00,77.8,67.6,29.90,North,0,0.0,0.0,71,0.00,,,0.00,WUHU216HW,2013-08-18 16:26:00,
2013-08-18 12:31:00,77.8,67.6,29.89,North,0,0.0,0.0,71,0.00,,,0.00,WUHU216HW,2013-08-18 16:31:00,
2013-08-18 12:36:00,77.8,67.6,29.89,North,0,0.0,0.0,71,0.00,,,0.00,WUHU216HW,2013-08-18 16:36:00,
2013-08-18 12:41:00,77.8,67.2,29.89,North,0,0.0,0.0,70,0.00,,,0.00,WUHU216HW,2013-08-18 16:41:00,
2013-08-18 12:46:00,77.8,67.6,29.89,North,0,0.0,0.0,71,0.00,,,0.00,WUHU216HW,2013-08-18 16:46:00,
2013-08-18 12:51:00,77.8,67.6,29.89,North,0,0.0,0.0,71,0.00,,,0.00,WUHU216HW,2013-08-18 16:51:00,
2013-08-18 12:56:00,77.9,67.4,29.89,North,0,0.0,0.0,70,0.00,,,0.00,WUHU216HW,2013-08-18 16:56:00,
2013-08-18 13:01:00,78.1,68.0,29.89,North,0,0.0,0.0,71,0.00,,,0.00,WUHU216HW,2013-08-18 17:01:00,
2013-08-18 13:06:00,78.3,67.8,29.89,North,0,0.0,0.0,70,0.00,,,0.00,WUHU216HW,2013-08-18 17:06:00,
2013-08-18 13:11:00,78.1,67.6,29.88,North,0,0.0,0.0,70,0.00,,,0.00,WUHU216HW,2013-08-18 17:11:00,
2013-08-18 13:17:00,78.5,68.3,29.89,North,0,0.0,0.0,71,0.00,,,0.00,WUHU216HW,2013-08-18 17:17:00,
2013-08-18 13:22:00,78.8,67.8,29.88,North,0,0.0,0.0,69,0.00,,,0.00,WUHU216HW,2013-08-18 17:22:00,
2013-08-18 13:27:00,78.8,67.8,29.88,North,0,0.0,0.0,69,0.00,,,0.00,WUHU216HW,2013-08-18 17:27:00,
2013-08-18 13:32:00,78.8,67.0,29.88,North,0,0.0,0.0,67,0.00,,,0.00,WUHU216HW,2013-08-18 17:32:00,
2013-08-18 13:37:00,78.8,67.0,29.88,North,0,0.0,0.0,67,0.00,,,0.00,WUHU216HW,2013-08-18 17:37:00,
2013-08-18 13:42:00,78.8,67.3,29.88,North,0,0.0,0.0,68,0.00,,,0.00,WUHU216HW,2013-08-18 17:42:00,
2013-08-18 13:47:00,78.7,67.6,29.87,North,0,0.0,0.0,69,0.00,,,0.00,WUHU216HW,2013-08-18 17:47:00,
2013-08-18 13:52:00,78.7,67.2,29.87,North,0,0.0,0.0,68,0.00,,,0.00,WUHU216HW,2013-08-18 17:52:00,
2013-08-18 13:57:00,78.8,67.3,29.87,North,0,0.0,0.0,68,0.00,,,0.00,WUHU216HW,2013-08-18 17:57:00,
2013-08-18 14:02:00,78.3,67.3,29.87,North,0,0.0,0.0,69,0.00,,,0.00,WUHU216HW,2013-08-18 18:02:00,
2013-08-18 14:07:00,78.1,67.6,29.87,North,0,0.0,0.0,70,0.00,,,0.00,WUHU216HW,2013-08-18 18:07:00,
2013-08-18 14:12:00,77.8,67.2,29.87,North,0,0.0,0.0,70,0.00,,,0.00,WUHU216HW,2013-08-18 18:12:00,
2013-08-18 14:18:00,77.6,67.5,29.87,North,0,0.0,0.0,71,0.00,,,0.00,WUHU216HW,2013-08-18 18:18:00,
2013-08-18 14:23:00,77.8,67.6,29.86,North,0,0.0,0.0,71,0.00,,,0.00,WUHU216HW,2013-08-18 18:23:00,
2013-08-18 14:28:00,77.8,67.6,29.86,North,0,0.0,0.0,71,0.00,,,0.00,WUHU216HW,2013-08-18 18:28:00,
2013-08-18 14:33:00,77.9,67.4,29.86,North,0,0.0,0.0,70,0.00,,,0.00,WUHU216HW,2013-08-18 18:33:00,
2013-08-18 14:38:00,77.9,67.4,29.85,North,0,0.0,0.0,70,0.00,,,0.00,WUHU216HW,2013-08-18 18:38:00,
2013-08-18 14:43:00,78.1,67.6,29.85,North,0,0.0,0.0,70,0.00,,,0.00,WUHU216HW,2013-08-18 18:43:00,
2013-08-18 14:48:00,78.1,68.0,29.85,North,0,0.0,0.0,71,0.00,,,0.00,WUHU216HW,2013-08-18 18:48:00,
2013-08-18 14:53:00,78.3,68.1,29.85,North,0,0.0,0.0,71,0.00,,,0.00,WUHU216HW,2013-08-18 18:53:00,
2013-08-18 14:58:00,78.3,67.3,29.85,North,0,0.0,0.0,69,0.00,,,0.00,WUHU216HW,2013-08-18 18:58:00,
2013-08-18 15:03:00,78.3,67.3,29.84,North,0,0.0,0.0,69,0.00,,,0.00,WUHU216HW,2013-08-18 19:03:00,
2013-08-18 15:08:00,78.3,67.3,29.85,North,0,0.0,0.0,69,0.00,,,0.00,WUHU216HW,2013-08-18 19:08:00,
2013-08-18 15:13:00,78.5,67.5,29.84,North,0,0.0,0.0,69,0.00,,,0.00,WUHU216HW,2013-08-18 19:13:00,
2013-08-18 15:19:00,78.7,67.6,29.84,North,0,0.0,0.0,69,0.00,,,0.00,WUHU216HW,2013-08-18 19:19:00,
2013-08-18 15:24:00,78.5,67.5,29.84,North,0,0.0,0.0,69,0.00,,,0.00,WUHU216HW,2013-08-18 19:24:00,
2013-08-18 15:29:00,78.5,67.9,29.84,North,0,0.0,0.0,70,0.00,,,0.00,WUHU216HW,2013-08-18 19:29:00,
2013-08-18 15:34:00,78.5,67.5,29.83,North,0,0.0,0.0,69,0.00,,,0.00,WUHU216HW,2013-08-18 19:34:00,
2013-08-18 15:39:00,78.5,67.1,29.83,North,0,0.0,0.0,68,0.00,,,0.00,WUHU216HW,2013-08-18 19:39:00,
2013-08-18 15:44:00,78.7,67.2,29.83,North,0,0.0,0.0,68,0.00,,,0.00,WUHU216HW,2013-08-18 19:44:00,
2013-08-18 15:49:00,78.8,67.0,29.83,North,0,0.0,0.0,67,0.00,,,0.00,WUHU216HW,2013-08-18 19:49:00,
2013-08-18 15:54:00,79.0,67.2,29.83,North,0,0.0,0.0,67,0.00,,,0.00,WUHU216HW,2013-08-18 19:54:00,
2013-08-18 15:59:00,79.0,67.2,29.82,North,0,0.0,0.0,67,0.00,,,0.00,WUHU216HW,2013-08-18 19:59:00,
2013-08-18 16:04:00,78.8,67.0,29.82,North,0,0.0,0.0,67,0.00,,,0.00,WUHU216HW,2013-08-18 20:04:00,
2013-08-18 16:09:00,78.7,67.2,29.82,North,0,0.0,0.0,68,0.00,,,0.00,WUHU216HW,2013-08-18 20:09:00,
2013-08-18 16:14:00,78.7,67.2,29.82,North,0,0.0,0.0,68,0.00,,,0.00,WUHU216HW,2013-08-18 20:14:00,
2013-08-18 16:19:00,78.5,67.5,29.82,North,0,0.0,0.0,69,0.00,,,0.00,WUHU216HW,2013-08-18 20:19:00,
2013-08-18 16:24:00,78.3,67.3,29.82,North,0,0.0,0.0,69,0.00,,,0.00,WUHU216HW,2013-08-18 20:24:00,
2013-08-18 16:30:00,78.1,66.2,29.82,North,0,0.0,0.0,67,0.00,,,0.00,WUHU216HW,2013-08-18 20:30:00,
2013-08-18 16:35:00,77.9,65.6,29.82,North,0,0.0,0.0,66,0.00,,,0.00,WUHU216HW,2013-08-18 20:35:00,
2013-08-18 16:40:00,77.9,65.6,29.81,North,0,0.0,0.0,66,0.00,,,0.00,WUHU216HW,2013-08-18 20:40:00,
2013-08-18 16:45:00,77.8,65.5,29.81,North,0,0.0,0.0,66,0.00,,,0.00,WUHU216HW,2013-08-18 20:45:00,
2013-08-18 16:50:00,77.6,65.4,29.81,North,0,0.0,0.0,66,0.00,,,0.00,WUHU216HW,2013-08-18 20:50:00,
2013-08-18 16:55:00,77.4,65.2,29.81,North,0,0.0,0.0,66,0.00,,,0.00,WUHU216HW,2013-08-18 20:55:00,
2013-08-18 17:00:00,77.4,65.2,29.81,North,0,0.0,0.0,66,0.00,,,0.00,WUHU216HW,2013-08-18 21:00:00,
2013-08-18 17:05:00,77.4,64.7,29.81,North,0,0.0,0.0,65,0.00,,,0.00,WUHU216HW,2013-08-18 21:05:00,
2013-08-18 17:10:00,77.2,64.5,29.81,North,0,0.0,0.0,65,0.00,,,0.00,WUHU216HW,2013-08-18 21:10:00,
2013-08-18 17:15:00,77.2,64.5,29.81,North,0,0.0,0.0,65,0.00,,,0.00,WUHU216HW,2013-08-18 21:15:00,
2013-08-18 17:20:00,77.0,64.4,29.81,North,0,0.0,0.0,65,0.00,,,0.00,WUHU216HW,2013-08-18 21:20:00,
2013-08-18 17:25:00,76.9,64.6,29.81,North,0,0.0,0.0,66,0.00,,,0.00,WUHU216HW,2013-08-18 21:25:00,
2013-08-18 17:30:00,76.9,64.6,29.81,North,0,0.0,0.0,66,0.00,,,0.00,WUHU216HW,2013-08-18 21:30:00,
2013-08-18 17:36:00,76.7,64.4,29.80,North,0,0.0,0.0,66,0.00,,,0.00,WUHU216HW,2013-08-18 21:36:00,
2013-08-18 17:41:00,76.5,63.8,29.80,North,0,0.0,0.0,65,0.00,,,0.00,WUHU216HW,2013-08-18 21:41:00,
2013-08-18 17:46:00,76.3,64.1,29.80,North,0,0.0,0.0,66,0.00,,,0.00,WUHU216HW,2013-08-18 21:46:00,
2013-08-18 17:51:00,76.0,63.7,29.80,North,0,0.0,0.0,66,0.00,,,0.00,WUHU216HW,2013-08-18 21:51:00,
2013-08-18 17:56:00,75.8,63.6,29.80,North,0,0.0,0.0,66,0.00,,,0.00,WUHU216HW,2013-08-18 21:56:00,
2013-08-18 18:01:00,75.6,63.5,29.80,North,0,0.0,0.0,66,0.00,,,0.00,WUHU216HW,2013-08-18 22:01:00,
2013-08-18 18:06:00,75.2,63.6,29.80,North,0,0.0,0.0,67,0.00,,,0.00,WUHU216HW,2013-08-18 22:06:00,
2013-08-18 18:11:00,75.2,64.4,29.79,North,0,0.0,0.0,69,0.00,,,0.00,WUHU216HW,2013-08-18 22:11:00,
2013-08-18 18:16:00,74.9,64.4,29.79,North,0,0.0,0.0,70,0.00,,,0.00,WUHU216HW,2013-08-18 22:16:00,
2013-08-18 18:21:00,74.5,64.2,29.79,North,0,0.0,0.0,70,0.00,,,0.00,WUHU216HW,2013-08-18 22:21:00,
2013-08-18 18:26:00,74.2,64.2,29.79,North,0,0.0,0.0,71,0.00,,,0.00,WUHU216HW,2013-08-18 22:26:00,
2013-08-18 18:31:00,73.8,63.9,29.79,North,0,0.0,0.0,71,0.00,,,0.00,WUHU216HW,2013-08-18 22:31:00,
2013-08-18 18:36:00,73.4,63.9,29.79,North,0,0.0,0.0,72,0.00,,,0.00,WUHU216HW,2013-08-18 22:36:00,
2013-08-18 18:42:00,73.1,63.5,29.79,North,0,0.0,0.0,72,0.00,,,0.00,WUHU216HW,2013-08-18 22:42:00,
2013-08-18 18:47:00,72.7,63.6,29.78,North,0,0.0,0.0,73,0.00,,,0.00,WUHU216HW,2013-08-18 22:47:00,
2013-08-18 18:52:00,72.2,63.5,29.78,North,0,0.0,0.0,74,0.00,,,0.00,WUHU216HW,2013-08-18 22:52:00,
2013-08-18 18:57:00,72.0,62.9,29.79,North,0,0.0,0.0,73,0.00,,,0.00,WUHU216HW,2013-08-18 22:57:00,
2013-08-18 19:02:00,72.0,63.3,29.79,North,0,0.0,0.0,74,0.00,,,0.00,WUHU216HW,2013-08-18 23:02:00,
2013-08-18 19:07:00,71.6,62.9,29.78,North,0,0.0,0.0,74,0.00,,,0.00,WUHU216HW,2013-08-18 23:07:00,
2013-08-18 19:12:00,71.6,62.9,29.78,North,0,0.0,0.0,74,0.00,,,0.00,WUHU216HW,2013-08-18 23:12:00,
2013-08-18 19:17:00,71.5,63.1,29.78,North,0,0.0,0.0,75,0.00,,,0.00,WUHU216HW,2013-08-18 23:17:00,
2013-08-18 19:22:00,71.3,63.3,29.78,North,0,0.0,0.0,76,0.00,,,0.00,WUHU216HW,2013-08-18 23:22:00,
2013-08-18 19:27:00,71.1,63.5,29.78,North,0,0.0,0.0,77,0.00,,,0.00,WUHU216HW,2013-08-18 23:27:00,
2013-08-18 19:32:00,70.9,63.3,29.78,North,0,0.0,0.0,77,0.00,,,0.00,WUHU216HW,2013-08-18 23:32:00,
2013-08-18 19:37:00,70.7,63.1,29.78,North,0,0.0,0.0,77,0.00,,,0.00,WUHU216HW,2013-08-18 23:37:00,
2013-08-18 19:42:00,70.4,63.2,29.78,North,0,0.0,0.0,78,0.00,,,0.00,WUHU216HW,2013-08-18 23:42:00,
2013-08-18 19:48:00,70.2,63.0,29.78,North,0,0.0,0.0,78,0.00,,,0.00,WUHU216HW,2013-08-18 23:48:00,
2013-08-18 19:53:00,70.0,62.8,29.79,North,0,0.0,0.0,78,0.00,,,0.00,WUHU216HW,2013-08-18 23:53:00,
2013-08-18 19:58:00,69.7,62.5,29.78,North,0,0.0,0.0,78,0.00,,,0.00,WUHU216HW,2013-08-18 23:58:00,
2013-08-18 20:03:00,69.5,62.6,29.78,North,0,0.0,0.0,79,0.00,,,0.00,WUHU216HW,2013-08-19 00:03:00,
2013-08-18 20:08:00,69.3,62.5,29.78,North,0,0.0,0.0,79,0.00,,,0.00,WUHU216HW,2013-08-19 00:08:00,
2013-08-18 20:13:00,69.1,62.4,29.78,North,0,0.0,0.0,79,0.00,,,0.00,WUHU216HW,2013-08-19 00:13:00,
2013-08-18 20:18:00,68.9,62.6,29.79,North,0,0.0,0.0,80,0.00,,,0.00,WUHU216HW,2013-08-19 00:18:00,
2013-08-18 20:23:00,68.8,62.4,29.79,North,0,0.0,0.0,80,0.00,,,0.00,WUHU216HW,2013-08-19 00:23:00,
2013-08-18 20:28:00,68.4,62.4,29.78,North,0,0.0,0.0,81,0.00,,,0.00,WUHU216HW,2013-08-19 00:28:00,
2013-08-18 20:33:00,68.2,62.2,29.78,North,0,0.0,0.0,81,0.00,,,0.00,WUHU216HW,2013-08-19 00:33:00,
2013-08-18 20:38:00,68.0,62.4,29.78,North,0,0.0,0.0,82,0.00,,,0.00,WUHU216HW,2013-08-19 00:38:00,
2013-08-18 20:43:00,67.9,62.2,29.78,North,0,0.0,0.0,82,0.00,,,0.00,WUHU216HW,2013-08-19 00:43:00,
2013-08-18 20:48:00,67.9,62.2,29.78,North,0,0.0,0.0,82,0.00,,,0.00,WUHU216HW,2013-08-19 00:48:00,
2013-08-18 20:54:00,67.7,62.4,29.78,North,0,0.0,0.0,83,0.00,,,0.00,WUHU216HW,2013-08-19 00:54:00,
2013-08-18 20:59:00,67.3,62.0,29.77,North,0,0.0,0.0,83,0.00,,,0.00,WUHU216HW,2013-08-19 00:59:00,
2013-08-18 21:04:00,67.3,62.0,29.77,North,0,0.0,0.0,83,0.00,,,0.00,WUHU216HW,2013-08-19 01:04:00,
2013-08-18 21:09:00,67.1,62.1,29.77,North,0,0.0,0.0,84,0.00,,,0.00,WUHU216HW,2013-08-19 01:09:00,
2013-08-18 21:14:00,67.0,61.7,29.77,North,0,0.0,0.0,83,0.00,,,0.00,WUHU216HW,2013-08-19 01:14:00,
2013-08-18 21:19:00,66.8,61.7,29.77,North,0,0.0,0.0,84,0.00,,,0.00,WUHU216HW,2013-08-19 01:19:00,
2013-08-18 21:24:00,66.6,61.6,29.77,North,0,0.0,0.0,84,0.00,,,0.00,WUHU216HW,2013-08-19 01:24:00,
2013-08-18 21:29:00,66.6,61.6,29.77,North,0,0.0,0.0,84,0.00,,,0.00,WUHU216HW,2013-08-19 01:29:00,
2013-08-18 21:34:00,66.4,61.7,29.77,North,0,0.0,0.0,85,0.00,,,0.00,WUHU216HW,2013-08-19 01:34:00,
2013-08-18 21:39:00,66.2,61.6,29.77,North,0,0.0,0.0,85,0.00,,,0.00,WUHU216HW,2013-08-19 01:39:00,
2013-08-18 21:44:00,66.2,61.6,29.77,North,0,0.0,0.0,85,0.00,,,0.00,WUHU216HW,2013-08-19 01:44:00,
2013-08-18 21:49:00,65.9,61.6,29.77,North,0,0.0,0.0,86,0.00,,,0.00,WUHU216HW,2013-08-19 01:49:00,
2013-08-18 21:54:00,65.9,61.6,29.77,North,0,0.0,0.0,86,0.00,,,0.00,WUHU216HW,2013-08-19 01:54:00,
2013-08-18 22:00:00,65.9,61.2,29.77,North,0,0.0,0.0,85,0.00,,,0.00,WUHU216HW,2013-08-19 02:00:00,
2013-08-18 22:05:00,65.7,61.4,29.76,North,0,0.0,0.0,86,0.00,,,0.00,WUHU216HW,2013-08-19 02:05:00,
2013-08-18 22:10:00,65.5,61.6,29.76,North,0,0.0,0.0,87,0.00,,,0.00,WUHU216HW,2013-08-19 02:10:00,
2013-08-18 22:15:00,65.3,61.4,29.76,North,0,0.0,0.0,87,0.00,,,0.00,WUHU216HW,2013-08-19 02:15:00,
2013-08-18 22:20:00,65.2,60.8,29.76,North,0,0.0,0.0,86,0.00,,,0.00,WUHU216HW,2013-08-19 02:20:00,
2013-08-18 22:25:00,65.0,60.7,29.76,North,0,0.0,0.0,86,0.00,,,0.00,WUHU216HW,2013-08-19 02:25:00,
2013-08-18 22:30:00,65.0,60.7,29.75,North,0,0.0,0.0,86,0.00,,,0.00,WUHU216HW,2013-08-19 02:30:00,
2013-08-18 22:35:00,64.8,60.6,29.75,North,0,0.0,0.0,86,0.00,,,0.00,WUHU216HW,2013-08-19 02:35:00,
2013-08-18 22:40:00,64.8,60.8,29.75,North,0,0.0,0.0,87,0.00,,,0.00,WUHU216HW,2013-08-19 02:40:00,
2013-08-18 22:46:00,64.6,60.7,29.75,North,0,0.0,0.0,87,0.00,,,0.00,WUHU216HW,2013-08-19 02:46:00,
2013-08-18 22:51:00,64.4,60.6,29.75,North,0,0.0,0.0,87,0.00,,,0.00,WUHU216HW,2013-08-19 02:51:00,
2013-08-18 22:56:00,64.4,60.6,29.75,North,0,0.0,0.0,87,0.00,,,0.00,WUHU216HW,2013-08-19 02:56:00,
2013-08-18 23:01:00,64.3,60.4,29.75,North,0,0.0,0.0,87,0.00,,,0.00,WUHU216HW,2013-08-19 03:01:00,
2013-08-18 23:06:00,64.1,60.2,29.74,North,0,0.0,0.0,87,0.00,,,0.00,WUHU216HW,2013-08-19 03:06:00,
2013-08-18 23:11:00,63.9,60.0,29.74,North,0,0.0,0.0,87,0.00,,,0.00,WUHU216HW,2013-08-19 03:11:00,
2013-08-18 23:16:00,63.7,59.9,29.74,North,0,0.0,0.0,87,0.00,,,0.00,WUHU216HW,2013-08-19 03:16:00,
2013-08-18 23:21:00,63.7,59.9,29.74,North,0,0.0,0.0,87,0.00,,,0.00,WUHU216HW,2013-08-19 03:21:00,
2013-08-18 23:26:00,63.5,59.7,29.74,North,0,0.0,0.0,87,0.00,,,0.00,WUHU216HW,2013-08-19 03:26:00,
2013-08-18 23:31:00,63.5,59.7,29.74,North,0,0.0,0.0,87,0.00,,,0.00,WUHU216HW,2013-08-19 03:31:00,
2013-08-18 23:36:00,63.4,59.8,29.74,North,0,0.0,0.0,88,0.00,,,0.00,WUHU216HW,2013-08-19 03:36:00,
2013-08-18 23:41:00,63.2,59.6,29.74,North,0,0.0,0.0,88,0.00,,,0.00,WUHU216HW,2013-08-19 03:41:00,
2013-08-18 23:46:00,63.0,59.4,29.74,North,0,0.0,0.0,88,0.00,,,0.00,WUHU216HW,2013-08-19 03:46:00,
2013-08-18 23:52:00,62.8,59.2,29.74,North,0,0.0,0.0,88,0.00,,,0.00,WUHU216HW,2013-08-19 03:52:00,
2013-08-18 23:57:00,62.8,59.2,29.74,North,0,0.0,0.0,88,0.00,,,0.00,WUHU216HW,2013-08-19 03:57:00,